sensor_id;sensor_type;location;lat;lon;timestamp;P1;durP1;ratioP1;P2;durP2;ratioP2
76552;SDS011;65395;53.168;18.156;2023-10-31T00:01:28;29.30;;;14.80;;
76552;SDS011;65395;53.168;18.156;2023-10-31T00:03:55;24.20;;;14.20;;
76552;SDS011;65395;53.168;18.156;2023-10-31T00:06:22;25.60;;;14.70;;
76552;SDS011;65395;53.168;18.156;2023-10-31T00:08:49;25.70;;;15.10;;
76552;SDS011;65395;53.168;18.156;2023-10-31T00:11:16;25.40;;;14.40;;
76552;SDS011;65395;53.168;18.156;2023-10-31T00:13:43;23.70;;;14.50;;
76552;SDS011;65395;53.168;18.156;2023-10-31T00:16:10;24.00;;;14.70;;
76552;SDS011;65395;53.168;18.156;2023-10-31T00:18:36;29.50;;;15.00;;
76552;SDS011;65395;53.168;18.156;2023-10-31T00:21:03;24.30;;;14.50;;
76552;SDS011;65395;53.168;18.156;2023-10-31T00:23:32;24.40;;;14.70;;
76552;SDS011;65395;53.168;18.156;2023-10-31T00:25:58;23.30;;;14.30;;
76552;SDS011;65395;53.168;18.156;2023-10-31T00:28:25;26.40;;;13.90;;
76552;SDS011;65395;53.168;18.156;2023-10-31T00:30:52;21.70;;;13.90;;
76552;SDS011;65395;53.168;18.156;2023-10-31T00:33:21;22.40;;;14.00;;
76552;SDS011;65395;53.168;18.156;2023-10-31T00:35:48;25.10;;;14.00;;
76552;SDS011;65395;53.168;18.156;2023-10-31T00:38:15;24.80;;;13.60;;
76552;SDS011;65395;53.168;18.156;2023-10-31T00:40:42;23.50;;;14.00;;
76552;SDS011;65395;53.168;18.156;2023-10-31T00:43:09;21.60;;;12.90;;
76552;SDS011;65395;53.168;18.156;2023-10-31T00:45:36;24.70;;;13.70;;
76552;SDS011;65395;53.168;18.156;2023-10-31T00:48:03;23.60;;;13.10;;
76552;SDS011;65395;53.168;18.156;2023-10-31T00:50:30;25.20;;;13.80;;
76552;SDS011;65395;53.168;18.156;2023-10-31T00:52:57;22.20;;;13.20;;
76552;SDS011;65395;53.168;18.156;2023-10-31T00:55:23;22.20;;;12.60;;
76552;SDS011;65395;53.168;18.156;2023-10-31T00:57:51;22.20;;;13.20;;
76552;SDS011;65395;53.168;18.156;2023-10-31T01:00:18;23.60;;;13.10;;
76552;SDS011;65395;53.168;18.156;2023-10-31T01:02:45;24.10;;;13.30;;
76552;SDS011;65395;53.168;18.156;2023-10-31T01:05:12;21.90;;;12.90;;
76552;SDS011;65395;53.168;18.156;2023-10-31T01:07:39;22.10;;;13.20;;
76552;SDS011;65395;53.168;18.156;2023-10-31T01:10:06;20.80;;;12.60;;
76552;SDS011;65395;53.168;18.156;2023-10-31T01:12:33;21.10;;;12.80;;
76552;SDS011;65395;53.168;18.156;2023-10-31T01:15:01;20.50;;;12.60;;
76552;SDS011;65395;53.168;18.156;2023-10-31T01:17:28;24.30;;;12.70;;
76552;SDS011;65395;53.168;18.156;2023-10-31T01:19:56;22.40;;;12.60;;
76552;SDS011;65395;53.168;18.156;2023-10-31T01:22:22;23.90;;;12.60;;
76552;SDS011;65395;53.168;18.156;2023-10-31T01:24:49;25.70;;;13.50;;
76552;SDS011;65395;53.168;18.156;2023-10-31T01:27:16;20.40;;;12.20;;
76552;SDS011;65395;53.168;18.156;2023-10-31T01:29:43;22.30;;;12.50;;
76552;SDS011;65395;53.168;18.156;2023-10-31T01:32:10;20.30;;;12.40;;
76552;SDS011;65395;53.168;18.156;2023-10-31T01:34:37;21.40;;;13.00;;
76552;SDS011;65395;53.168;18.156;2023-10-31T01:37:04;21.60;;;12.50;;
76552;SDS011;65395;53.168;18.156;2023-10-31T01:39:31;24.80;;;13.20;;
76552;SDS011;65395;53.168;18.156;2023-10-31T01:41:58;19.20;;;12.00;;
76552;SDS011;65395;53.168;18.156;2023-10-31T01:44:24;20.70;;;12.70;;
76552;SDS011;65395;53.168;18.156;2023-10-31T01:46:51;25.00;;;13.20;;
76552;SDS011;65395;53.168;18.156;2023-10-31T01:49:18;23.40;;;12.90;;
76552;SDS011;65395;53.168;18.156;2023-10-31T01:51:45;22.20;;;12.60;;
76552;SDS011;65395;53.168;18.156;2023-10-31T01:54:13;23.30;;;13.70;;
76552;SDS011;65395;53.168;18.156;2023-10-31T01:56:41;22.70;;;13.00;;
76552;SDS011;65395;53.168;18.156;2023-10-31T01:59:09;22.80;;;12.80;;
76552;SDS011;65395;53.168;18.156;2023-10-31T02:01:37;26.20;;;13.00;;
76552;SDS011;65395;53.168;18.156;2023-10-31T02:04:06;25.90;;;14.20;;
76552;SDS011;65395;53.168;18.156;2023-10-31T02:06:33;22.60;;;13.40;;
76552;SDS011;65395;53.168;18.156;2023-10-31T02:09:00;23.90;;;13.30;;
76552;SDS011;65395;53.168;18.156;2023-10-31T02:11:27;21.90;;;13.50;;
76552;SDS011;65395;53.168;18.156;2023-10-31T02:13:54;22.70;;;12.90;;
76552;SDS011;65395;53.168;18.156;2023-10-31T02:16:21;19.90;;;11.90;;
76552;SDS011;65395;53.168;18.156;2023-10-31T02:18:48;21.50;;;12.30;;
76552;SDS011;65395;53.168;18.156;2023-10-31T02:21:15;20.20;;;12.20;;
76552;SDS011;65395;53.168;18.156;2023-10-31T02:26:29;23.70;;;12.30;;
76552;SDS011;65395;53.168;18.156;2023-10-31T02:28:57;21.50;;;12.30;;
76552;SDS011;65395;53.168;18.156;2023-10-31T02:31:24;21.00;;;12.30;;
76552;SDS011;65395;53.168;18.156;2023-10-31T02:33:52;20.30;;;12.00;;
76552;SDS011;65395;53.168;18.156;2023-10-31T02:36:19;18.80;;;11.50;;
76552;SDS011;65395;53.168;18.156;2023-10-31T02:38:46;20.90;;;11.90;;
76552;SDS011;65395;53.168;18.156;2023-10-31T02:41:14;19.30;;;10.90;;
76552;SDS011;65395;53.168;18.156;2023-10-31T02:43:41;21.20;;;11.50;;
76552;SDS011;65395;53.168;18.156;2023-10-31T02:46:09;19.40;;;11.70;;
76552;SDS011;65395;53.168;18.156;2023-10-31T02:48:38;15.70;;;11.10;;
76552;SDS011;65395;53.168;18.156;2023-10-31T02:51:07;18.20;;;10.80;;
76552;SDS011;65395;53.168;18.156;2023-10-31T02:53:34;17.10;;;10.00;;
76552;SDS011;65395;53.168;18.156;2023-10-31T02:56:03;15.90;;;10.70;;
76552;SDS011;65395;53.168;18.156;2023-10-31T02:58:30;25.30;;;10.70;;
76552;SDS011;65395;53.168;18.156;2023-10-31T03:00:57;16.20;;;10.00;;
76552;SDS011;65395;53.168;18.156;2023-10-31T03:03:24;16.20;;;10.00;;
76552;SDS011;65395;53.168;18.156;2023-10-31T03:05:51;17.50;;;9.90;;
76552;SDS011;65395;53.168;18.156;2023-10-31T03:08:17;16.30;;;9.60;;
76552;SDS011;65395;53.168;18.156;2023-10-31T03:10:47;17.10;;;9.50;;
76552;SDS011;65395;53.168;18.156;2023-10-31T03:13:17;16.00;;;9.40;;
76552;SDS011;65395;53.168;18.156;2023-10-31T03:15:45;17.70;;;9.50;;
76552;SDS011;65395;53.168;18.156;2023-10-31T03:18:13;15.20;;;8.50;;
76552;SDS011;65395;53.168;18.156;2023-10-31T03:20:44;14.70;;;8.90;;
76552;SDS011;65395;53.168;18.156;2023-10-31T03:23:13;15.50;;;9.00;;
76552;SDS011;65395;53.168;18.156;2023-10-31T03:25:40;19.20;;;8.80;;
76552;SDS011;65395;53.168;18.156;2023-10-31T03:28:17;14.60;;;8.40;;
76552;SDS011;65395;53.168;18.156;2023-10-31T03:30:47;17.60;;;8.50;;
76552;SDS011;65395;53.168;18.156;2023-10-31T03:33:14;14.80;;;8.10;;
76552;SDS011;65395;53.168;18.156;2023-10-31T03:35:41;13.40;;;8.30;;
76552;SDS011;65395;53.168;18.156;2023-10-31T03:38:08;16.50;;;8.70;;
76552;SDS011;65395;53.168;18.156;2023-10-31T03:40:35;12.60;;;8.10;;
76552;SDS011;65395;53.168;18.156;2023-10-31T03:43:02;16.30;;;9.00;;
76552;SDS011;65395;53.168;18.156;2023-10-31T03:45:29;14.30;;;7.70;;
76552;SDS011;65395;53.168;18.156;2023-10-31T03:47:56;15.50;;;7.90;;
76552;SDS011;65395;53.168;18.156;2023-10-31T03:50:23;12.90;;;7.70;;
76552;SDS011;65395;53.168;18.156;2023-10-31T03:52:50;17.70;;;8.80;;
76552;SDS011;65395;53.168;18.156;2023-10-31T03:55:17;13.70;;;7.90;;
76552;SDS011;65395;53.168;18.156;2023-10-31T03:57:45;13.80;;;7.90;;
76552;SDS011;65395;53.168;18.156;2023-10-31T04:00:12;12.70;;;7.70;;
76552;SDS011;65395;53.168;18.156;2023-10-31T04:02:41;11.80;;;7.60;;
76552;SDS011;65395;53.168;18.156;2023-10-31T04:05:08;13.00;;;7.40;;
76552;SDS011;65395;53.168;18.156;2023-10-31T04:07:35;12.00;;;7.20;;
76552;SDS011;65395;53.168;18.156;2023-10-31T04:10:02;13.10;;;7.10;;
76552;SDS011;65395;53.168;18.156;2023-10-31T04:12:29;14.70;;;7.10;;
76552;SDS011;65395;53.168;18.156;2023-10-31T04:14:56;11.20;;;6.80;;
76552;SDS011;65395;53.168;18.156;2023-10-31T04:17:24;13.80;;;7.10;;
76552;SDS011;65395;53.168;18.156;2023-10-31T04:19:51;12.30;;;7.20;;
76552;SDS011;65395;53.168;18.156;2023-10-31T04:22:18;15.40;;;7.40;;
76552;SDS011;65395;53.168;18.156;2023-10-31T04:24:45;15.80;;;7.00;;
76552;SDS011;65395;53.168;18.156;2023-10-31T04:27:12;13.70;;;7.00;;
76552;SDS011;65395;53.168;18.156;2023-10-31T04:29:39;13.50;;;6.90;;
76552;SDS011;65395;53.168;18.156;2023-10-31T04:32:06;11.20;;;6.60;;
76552;SDS011;65395;53.168;18.156;2023-10-31T04:34:33;13.50;;;6.70;;
76552;SDS011;65395;53.168;18.156;2023-10-31T04:36:59;17.20;;;7.20;;
76552;SDS011;65395;53.168;18.156;2023-10-31T04:39:26;12.80;;;6.50;;
76552;SDS011;65395;53.168;18.156;2023-10-31T04:41:53;10.90;;;6.60;;
76552;SDS011;65395;53.168;18.156;2023-10-31T04:44:20;14.00;;;6.30;;
76552;SDS011;65395;53.168;18.156;2023-10-31T04:46:47;11.40;;;6.90;;
76552;SDS011;65395;53.168;18.156;2023-10-31T04:49:14;12.50;;;6.70;;
76552;SDS011;65395;53.168;18.156;2023-10-31T04:51:42;10.10;;;6.30;;
76552;SDS011;65395;53.168;18.156;2023-10-31T04:54:09;14.60;;;6.90;;
76552;SDS011;65395;53.168;18.156;2023-10-31T04:56:36;13.20;;;6.90;;
76552;SDS011;65395;53.168;18.156;2023-10-31T04:59:03;11.40;;;6.60;;
76552;SDS011;65395;53.168;18.156;2023-10-31T05:01:30;13.40;;;7.30;;
76552;SDS011;65395;53.168;18.156;2023-10-31T05:03:57;11.30;;;6.80;;
76552;SDS011;65395;53.168;18.156;2023-10-31T05:06:24;12.90;;;7.00;;
76552;SDS011;65395;53.168;18.156;2023-10-31T05:08:51;10.00;;;6.70;;
76552;SDS011;65395;53.168;18.156;2023-10-31T05:11:18;12.80;;;6.90;;
76552;SDS011;65395;53.168;18.156;2023-10-31T05:13:45;17.20;;;7.20;;
76552;SDS011;65395;53.168;18.156;2023-10-31T05:16:12;14.30;;;6.80;;
76552;SDS011;65395;53.168;18.156;2023-10-31T05:18:39;10.00;;;6.30;;
76552;SDS011;65395;53.168;18.156;2023-10-31T05:21:06;11.70;;;6.40;;
76552;SDS011;65395;53.168;18.156;2023-10-31T05:23:33;12.90;;;7.00;;
76552;SDS011;65395;53.168;18.156;2023-10-31T05:26:00;14.00;;;7.00;;
76552;SDS011;65395;53.168;18.156;2023-10-31T05:28:26;12.40;;;7.00;;
76552;SDS011;65395;53.168;18.156;2023-10-31T05:30:53;10.00;;;6.40;;
76552;SDS011;65395;53.168;18.156;2023-10-31T05:33:20;12.90;;;6.40;;
76552;SDS011;65395;53.168;18.156;2023-10-31T05:35:47;12.00;;;6.30;;
76552;SDS011;65395;53.168;18.156;2023-10-31T05:38:14;12.40;;;6.80;;
76552;SDS011;65395;53.168;18.156;2023-10-31T05:40:41;12.40;;;6.40;;
76552;SDS011;65395;53.168;18.156;2023-10-31T05:43:08;13.90;;;6.90;;
76552;SDS011;65395;53.168;18.156;2023-10-31T05:45:35;12.50;;;7.10;;
76552;SDS011;65395;53.168;18.156;2023-10-31T05:48:01;13.50;;;6.20;;
76552;SDS011;65395;53.168;18.156;2023-10-31T05:50:28;12.80;;;6.10;;
76552;SDS011;65395;53.168;18.156;2023-10-31T05:52:55;13.00;;;6.30;;
76552;SDS011;65395;53.168;18.156;2023-10-31T05:55:22;10.60;;;6.20;;
76552;SDS011;65395;53.168;18.156;2023-10-31T05:57:49;10.50;;;6.00;;
76552;SDS011;65395;53.168;18.156;2023-10-31T06:00:16;14.70;;;6.60;;
76552;SDS011;65395;53.168;18.156;2023-10-31T06:02:43;11.00;;;6.30;;
76552;SDS011;65395;53.168;18.156;2023-10-31T06:05:10;11.80;;;6.10;;
76552;SDS011;65395;53.168;18.156;2023-10-31T06:07:37;11.00;;;6.00;;
76552;SDS011;65395;53.168;18.156;2023-10-31T06:10:04;11.60;;;5.80;;
76552;SDS011;65395;53.168;18.156;2023-10-31T06:12:32;15.30;;;6.10;;
76552;SDS011;65395;53.168;18.156;2023-10-31T06:14:58;12.00;;;6.40;;
76552;SDS011;65395;53.168;18.156;2023-10-31T06:17:25;11.10;;;5.90;;
76552;SDS011;65395;53.168;18.156;2023-10-31T06:19:52;15.70;;;6.60;;
76552;SDS011;65395;53.168;18.156;2023-10-31T06:22:19;8.80;;;5.60;;
76552;SDS011;65395;53.168;18.156;2023-10-31T06:24:46;13.30;;;6.00;;
76552;SDS011;65395;53.168;18.156;2023-10-31T06:27:13;11.40;;;5.30;;
76552;SDS011;65395;53.168;18.156;2023-10-31T06:29:40;11.00;;;5.90;;
76552;SDS011;65395;53.168;18.156;2023-10-31T06:32:07;10.80;;;5.70;;
76552;SDS011;65395;53.168;18.156;2023-10-31T06:34:33;10.70;;;5.60;;
76552;SDS011;65395;53.168;18.156;2023-10-31T06:37:00;10.60;;;5.20;;
76552;SDS011;65395;53.168;18.156;2023-10-31T06:39:27;15.00;;;5.50;;
76552;SDS011;65395;53.168;18.156;2023-10-31T06:41:54;11.70;;;5.30;;
76552;SDS011;65395;53.168;18.156;2023-10-31T06:44:22;11.40;;;5.50;;
76552;SDS011;65395;53.168;18.156;2023-10-31T06:46:49;10.30;;;5.20;;
76552;SDS011;65395;53.168;18.156;2023-10-31T06:49:16;10.00;;;5.50;;
76552;SDS011;65395;53.168;18.156;2023-10-31T06:51:42;10.30;;;5.10;;
76552;SDS011;65395;53.168;18.156;2023-10-31T06:54:09;9.90;;;5.10;;
76552;SDS011;65395;53.168;18.156;2023-10-31T06:56:36;11.00;;;5.70;;
76552;SDS011;65395;53.168;18.156;2023-10-31T06:59:03;9.20;;;5.00;;
76552;SDS011;65395;53.168;18.156;2023-10-31T07:01:31;12.40;;;5.40;;
76552;SDS011;65395;53.168;18.156;2023-10-31T07:03:57;11.20;;;5.10;;
76552;SDS011;65395;53.168;18.156;2023-10-31T07:06:24;13.40;;;5.20;;
76552;SDS011;65395;53.168;18.156;2023-10-31T07:08:51;9.30;;;5.20;;
76552;SDS011;65395;53.168;18.156;2023-10-31T07:11:18;14.20;;;5.20;;
76552;SDS011;65395;53.168;18.156;2023-10-31T07:13:45;9.50;;;5.70;;
76552;SDS011;65395;53.168;18.156;2023-10-31T07:16:12;11.10;;;5.10;;
76552;SDS011;65395;53.168;18.156;2023-10-31T07:18:39;11.30;;;5.10;;
76552;SDS011;65395;53.168;18.156;2023-10-31T07:21:06;12.40;;;5.00;;
76552;SDS011;65395;53.168;18.156;2023-10-31T07:23:33;10.70;;;5.20;;
76552;SDS011;65395;53.168;18.156;2023-10-31T07:26:00;9.10;;;4.90;;
76552;SDS011;65395;53.168;18.156;2023-10-31T07:28:27;11.20;;;4.80;;
76552;SDS011;65395;53.168;18.156;2023-10-31T07:30:53;12.30;;;5.50;;
76552;SDS011;65395;53.168;18.156;2023-10-31T07:33:20;12.40;;;5.40;;
76552;SDS011;65395;53.168;18.156;2023-10-31T07:35:47;10.30;;;5.40;;
76552;SDS011;65395;53.168;18.156;2023-10-31T07:38:14;12.10;;;5.20;;
76552;SDS011;65395;53.168;18.156;2023-10-31T07:40:41;19.90;;;5.60;;
76552;SDS011;65395;53.168;18.156;2023-10-31T07:43:08;13.40;;;5.30;;
76552;SDS011;65395;53.168;18.156;2023-10-31T07:45:35;12.00;;;5.30;;
76552;SDS011;65395;53.168;18.156;2023-10-31T07:48:02;13.30;;;5.30;;
76552;SDS011;65395;53.168;18.156;2023-10-31T07:50:29;12.30;;;5.10;;
76552;SDS011;65395;53.168;18.156;2023-10-31T07:52:55;14.30;;;5.50;;
76552;SDS011;65395;53.168;18.156;2023-10-31T07:55:22;9.50;;;5.70;;
76552;SDS011;65395;53.168;18.156;2023-10-31T07:57:49;14.80;;;6.00;;
76552;SDS011;65395;53.168;18.156;2023-10-31T08:00:16;12.70;;;6.40;;
76552;SDS011;65395;53.168;18.156;2023-10-31T08:02:43;11.10;;;6.20;;
76552;SDS011;65395;53.168;18.156;2023-10-31T08:05:10;14.70;;;5.80;;
76552;SDS011;65395;53.168;18.156;2023-10-31T08:07:37;14.10;;;6.40;;
76552;SDS011;65395;53.168;18.156;2023-10-31T08:10:04;17.50;;;6.70;;
76552;SDS011;65395;53.168;18.156;2023-10-31T08:12:32;11.20;;;6.20;;
76552;SDS011;65395;53.168;18.156;2023-10-31T08:14:58;10.50;;;5.80;;
76552;SDS011;65395;53.168;18.156;2023-10-31T08:17:26;14.70;;;6.70;;
76552;SDS011;65395;53.168;18.156;2023-10-31T08:19:53;12.80;;;6.40;;
76552;SDS011;65395;53.168;18.156;2023-10-31T08:22:20;11.10;;;6.40;;
76552;SDS011;65395;53.168;18.156;2023-10-31T08:24:47;11.90;;;6.20;;
76552;SDS011;65395;53.168;18.156;2023-10-31T08:27:14;14.20;;;7.30;;
76552;SDS011;65395;53.168;18.156;2023-10-31T08:29:41;17.70;;;8.40;;
76552;SDS011;65395;53.168;18.156;2023-10-31T08:32:08;23.30;;;12.00;;
76552;SDS011;65395;53.168;18.156;2023-10-31T08:34:35;28.40;;;15.30;;
76552;SDS011;65395;53.168;18.156;2023-10-31T08:37:02;25.90;;;12.50;;
76552;SDS011;65395;53.168;18.156;2023-10-31T08:39:29;19.00;;;10.40;;
76552;SDS011;65395;53.168;18.156;2023-10-31T08:41:57;16.20;;;7.90;;
76552;SDS011;65395;53.168;18.156;2023-10-31T08:44:25;13.10;;;7.20;;
76552;SDS011;65395;53.168;18.156;2023-10-31T08:46:52;17.30;;;7.10;;
76552;SDS011;65395;53.168;18.156;2023-10-31T08:49:19;12.10;;;7.00;;
76552;SDS011;65395;53.168;18.156;2023-10-31T08:51:46;13.60;;;7.90;;
76552;SDS011;65395;53.168;18.156;2023-10-31T08:54:13;13.40;;;7.10;;
76552;SDS011;65395;53.168;18.156;2023-10-31T08:56:39;17.40;;;7.60;;
76552;SDS011;65395;53.168;18.156;2023-10-31T08:59:06;16.30;;;7.70;;
76552;SDS011;65395;53.168;18.156;2023-10-31T09:01:33;11.40;;;7.10;;
76552;SDS011;65395;53.168;18.156;2023-10-31T09:04:00;14.20;;;7.10;;
76552;SDS011;65395;53.168;18.156;2023-10-31T09:06:27;15.80;;;7.40;;
76552;SDS011;65395;53.168;18.156;2023-10-31T09:08:54;11.90;;;7.40;;
76552;SDS011;65395;53.168;18.156;2023-10-31T09:11:21;12.20;;;7.80;;
76552;SDS011;65395;53.168;18.156;2023-10-31T09:13:48;12.20;;;7.80;;
76552;SDS011;65395;53.168;18.156;2023-10-31T09:16:15;10.80;;;6.90;;
76552;SDS011;65395;53.168;18.156;2023-10-31T09:18:42;13.20;;;7.10;;
76552;SDS011;65395;53.168;18.156;2023-10-31T09:21:09;9.50;;;7.20;;
76552;SDS011;65395;53.168;18.156;2023-10-31T09:23:36;10.90;;;6.50;;
76552;SDS011;65395;53.168;18.156;2023-10-31T09:26:03;8.60;;;6.50;;
76552;SDS011;65395;53.168;18.156;2023-10-31T09:28:30;10.20;;;6.30;;
76552;SDS011;65395;53.168;18.156;2023-10-31T09:30:57;12.30;;;7.00;;
76552;SDS011;65395;53.168;18.156;2023-10-31T09:33:26;12.80;;;6.60;;
76552;SDS011;65395;53.168;18.156;2023-10-31T09:35:53;12.00;;;6.90;;
76552;SDS011;65395;53.168;18.156;2023-10-31T09:38:19;9.30;;;6.70;;
76552;SDS011;65395;53.168;18.156;2023-10-31T09:40:46;8.40;;;6.50;;
76552;SDS011;65395;53.168;18.156;2023-10-31T09:43:13;11.10;;;6.40;;
76552;SDS011;65395;53.168;18.156;2023-10-31T09:45:40;8.40;;;6.60;;
76552;SDS011;65395;53.168;18.156;2023-10-31T09:48:07;7.00;;;6.10;;
76552;SDS011;65395;53.168;18.156;2023-10-31T09:50:35;8.70;;;6.00;;
76552;SDS011;65395;53.168;18.156;2023-10-31T09:53:03;7.70;;;5.40;;
76552;SDS011;65395;53.168;18.156;2023-10-31T09:55:32;7.90;;;5.30;;
76552;SDS011;65395;53.168;18.156;2023-10-31T09:57:59;6.90;;;5.20;;
76552;SDS011;65395;53.168;18.156;2023-10-31T10:00:27;6.90;;;5.30;;
76552;SDS011;65395;53.168;18.156;2023-10-31T10:02:54;6.40;;;5.40;;
76552;SDS011;65395;53.168;18.156;2023-10-31T10:05:21;7.00;;;4.90;;
76552;SDS011;65395;53.168;18.156;2023-10-31T10:07:49;5.80;;;4.50;;
76552;SDS011;65395;53.168;18.156;2023-10-31T10:10:17;6.70;;;4.90;;
76552;SDS011;65395;53.168;18.156;2023-10-31T10:12:43;7.90;;;5.20;;
76552;SDS011;65395;53.168;18.156;2023-10-31T10:15:11;5.20;;;4.60;;
76552;SDS011;65395;53.168;18.156;2023-10-31T10:17:38;6.60;;;4.70;;
76552;SDS011;65395;53.168;18.156;2023-10-31T10:20:07;6.50;;;4.60;;
76552;SDS011;65395;53.168;18.156;2023-10-31T10:22:37;7.40;;;4.70;;
76552;SDS011;65395;53.168;18.156;2023-10-31T10:25:06;7.30;;;5.00;;
76552;SDS011;65395;53.168;18.156;2023-10-31T10:27:33;5.30;;;4.80;;
76552;SDS011;65395;53.168;18.156;2023-10-31T10:30:02;7.90;;;5.10;;
76552;SDS011;65395;53.168;18.156;2023-10-31T10:32:30;5.80;;;4.90;;
76552;SDS011;65395;53.168;18.156;2023-10-31T10:34:57;6.00;;;5.20;;
76552;SDS011;65395;53.168;18.156;2023-10-31T10:37:25;5.50;;;5.00;;
76552;SDS011;65395;53.168;18.156;2023-10-31T10:39:54;6.50;;;5.40;;
76552;SDS011;65395;53.168;18.156;2023-10-31T10:42:27;7.10;;;5.30;;
76552;SDS011;65395;53.168;18.156;2023-10-31T10:45:01;6.40;;;5.00;;
76552;SDS011;65395;53.168;18.156;2023-10-31T10:47:31;6.70;;;5.40;;
76552;SDS011;65395;53.168;18.156;2023-10-31T10:50:00;6.20;;;5.30;;
76552;SDS011;65395;53.168;18.156;2023-10-31T10:52:30;10.00;;;5.90;;
76552;SDS011;65395;53.168;18.156;2023-10-31T10:55:12;7.30;;;5.90;;
76552;SDS011;65395;53.168;18.156;2023-10-31T11:00:27;6.70;;;6.00;;
76552;SDS011;65395;53.168;18.156;2023-10-31T11:02:55;7.90;;;6.50;;
76552;SDS011;65395;53.168;18.156;2023-10-31T11:05:24;7.50;;;6.20;;
76552;SDS011;65395;53.168;18.156;2023-10-31T11:07:51;7.80;;;6.60;;
76552;SDS011;65395;53.168;18.156;2023-10-31T11:10:19;10.60;;;7.00;;
76552;SDS011;65395;53.168;18.156;2023-10-31T11:12:47;10.00;;;7.10;;
76552;SDS011;65395;53.168;18.156;2023-10-31T11:15:15;8.70;;;7.00;;
76552;SDS011;65395;53.168;18.156;2023-10-31T11:17:44;10.10;;;7.60;;
76552;SDS011;65395;53.168;18.156;2023-10-31T11:20:14;9.90;;;7.70;;
76552;SDS011;65395;53.168;18.156;2023-10-31T11:22:43;8.30;;;7.10;;
76552;SDS011;65395;53.168;18.156;2023-10-31T11:25:12;13.10;;;7.70;;
76552;SDS011;65395;53.168;18.156;2023-10-31T11:27:40;9.60;;;7.80;;
76552;SDS011;65395;53.168;18.156;2023-10-31T11:30:08;11.10;;;7.70;;
76552;SDS011;65395;53.168;18.156;2023-10-31T11:32:48;9.90;;;7.40;;
76552;SDS011;65395;53.168;18.156;2023-10-31T11:35:16;10.00;;;7.30;;
76552;SDS011;65395;53.168;18.156;2023-10-31T11:37:47;9.50;;;7.60;;
76552;SDS011;65395;53.168;18.156;2023-10-31T11:40:15;9.30;;;7.60;;
76552;SDS011;65395;53.168;18.156;2023-10-31T11:42:48;10.60;;;7.00;;
76552;SDS011;65395;53.168;18.156;2023-10-31T11:45:25;9.60;;;7.20;;
76552;SDS011;65395;53.168;18.156;2023-10-31T11:47:55;11.10;;;7.40;;
76552;SDS011;65395;53.168;18.156;2023-10-31T11:50:22;8.10;;;6.10;;
76552;SDS011;65395;53.168;18.156;2023-10-31T11:55:32;8.40;;;5.60;;
76552;SDS011;65395;53.168;18.156;2023-10-31T12:00:39;8.80;;;5.60;;
76552;SDS011;65395;53.168;18.156;2023-10-31T12:03:06;8.10;;;4.90;;
76552;SDS011;65395;53.168;18.156;2023-10-31T12:05:33;7.10;;;4.80;;
76552;SDS011;65395;53.168;18.156;2023-10-31T12:08:02;7.40;;;4.50;;
76552;SDS011;65395;53.168;18.156;2023-10-31T12:10:29;6.40;;;4.50;;
76552;SDS011;65395;53.168;18.156;2023-10-31T12:12:57;5.40;;;4.20;;
76552;SDS011;65395;53.168;18.156;2023-10-31T12:15:25;6.20;;;4.00;;
76552;SDS011;65395;53.168;18.156;2023-10-31T12:17:57;5.50;;;3.60;;
76552;SDS011;65395;53.168;18.156;2023-10-31T12:20:24;4.60;;;3.30;;
76552;SDS011;65395;53.168;18.156;2023-10-31T12:25:29;4.50;;;3.20;;
76552;SDS011;65395;53.168;18.156;2023-10-31T12:27:58;4.70;;;3.10;;
76552;SDS011;65395;53.168;18.156;2023-10-31T12:30:25;3.30;;;2.90;;
76552;SDS011;65395;53.168;18.156;2023-10-31T12:32:55;3.20;;;2.80;;
76552;SDS011;65395;53.168;18.156;2023-10-31T12:35:24;4.90;;;2.60;;
76552;SDS011;65395;53.168;18.156;2023-10-31T12:37:52;3.40;;;2.50;;
76552;SDS011;65395;53.168;18.156;2023-10-31T12:40:21;3.00;;;2.60;;
76552;SDS011;65395;53.168;18.156;2023-10-31T12:42:49;2.80;;;2.20;;
76552;SDS011;65395;53.168;18.156;2023-10-31T12:45:17;3.90;;;2.40;;
76552;SDS011;65395;53.168;18.156;2023-10-31T12:47:44;4.70;;;2.40;;
76552;SDS011;65395;53.168;18.156;2023-10-31T12:50:26;3.50;;;2.40;;
76552;SDS011;65395;53.168;18.156;2023-10-31T12:52:54;3.10;;;2.20;;
76552;SDS011;65395;53.168;18.156;2023-10-31T12:55:24;2.80;;;2.50;;
76552;SDS011;65395;53.168;18.156;2023-10-31T12:57:52;3.20;;;2.10;;
76552;SDS011;65395;53.168;18.156;2023-10-31T13:00:20;5.60;;;2.40;;
76552;SDS011;65395;53.168;18.156;2023-10-31T13:03:00;4.00;;;2.20;;
76552;SDS011;65395;53.168;18.156;2023-10-31T13:05:31;3.50;;;2.10;;
76552;SDS011;65395;53.168;18.156;2023-10-31T13:08:00;3.40;;;1.90;;
76552;SDS011;65395;53.168;18.156;2023-10-31T13:10:29;2.90;;;2.30;;
76552;SDS011;65395;53.168;18.156;2023-10-31T13:12:59;2.00;;;1.60;;
76552;SDS011;65395;53.168;18.156;2023-10-31T13:15:26;2.20;;;1.80;;
76552;SDS011;65395;53.168;18.156;2023-10-31T13:17:53;3.00;;;1.50;;
76552;SDS011;65395;53.168;18.156;2023-10-31T13:20:20;3.50;;;1.40;;
76552;SDS011;65395;53.168;18.156;2023-10-31T13:22:48;1.80;;;1.30;;
76552;SDS011;65395;53.168;18.156;2023-10-31T13:25:16;2.80;;;1.30;;
76552;SDS011;65395;53.168;18.156;2023-10-31T13:27:43;3.80;;;1.10;;
76552;SDS011;65395;53.168;18.156;2023-10-31T13:30:13;1.30;;;1.00;;
76552;SDS011;65395;53.168;18.156;2023-10-31T13:32:40;1.30;;;0.90;;
76552;SDS011;65395;53.168;18.156;2023-10-31T13:35:07;2.00;;;0.90;;
76552;SDS011;65395;53.168;18.156;2023-10-31T13:37:36;1.80;;;1.00;;
76552;SDS011;65395;53.168;18.156;2023-10-31T13:40:03;2.00;;;1.40;;
76552;SDS011;65395;53.168;18.156;2023-10-31T13:42:30;2.30;;;1.30;;
76552;SDS011;65395;53.168;18.156;2023-10-31T13:44:57;3.80;;;1.50;;
76552;SDS011;65395;53.168;18.156;2023-10-31T13:47:24;1.60;;;1.50;;
76552;SDS011;65395;53.168;18.156;2023-10-31T13:49:51;2.60;;;1.30;;
76552;SDS011;65395;53.168;18.156;2023-10-31T13:52:18;1.60;;;1.50;;
76552;SDS011;65395;53.168;18.156;2023-10-31T13:54:44;2.70;;;1.60;;
76552;SDS011;65395;53.168;18.156;2023-10-31T13:57:12;2.10;;;1.20;;
76552;SDS011;65395;53.168;18.156;2023-10-31T13:59:39;1.70;;;1.50;;
76552;SDS011;65395;53.168;18.156;2023-10-31T14:02:07;2.30;;;1.50;;
76552;SDS011;65395;53.168;18.156;2023-10-31T14:04:34;5.00;;;1.20;;
76552;SDS011;65395;53.168;18.156;2023-10-31T14:07:01;1.70;;;1.50;;
76552;SDS011;65395;53.168;18.156;2023-10-31T14:09:28;2.00;;;1.40;;
76552;SDS011;65395;53.168;18.156;2023-10-31T14:11:56;1.40;;;1.10;;
76552;SDS011;65395;53.168;18.156;2023-10-31T14:14:24;3.50;;;1.30;;
76552;SDS011;65395;53.168;18.156;2023-10-31T14:16:51;1.40;;;1.30;;
76552;SDS011;65395;53.168;18.156;2023-10-31T14:19:17;1.80;;;1.30;;
76552;SDS011;65395;53.168;18.156;2023-10-31T14:21:45;2.30;;;1.30;;
76552;SDS011;65395;53.168;18.156;2023-10-31T14:24:11;1.40;;;1.20;;
76552;SDS011;65395;53.168;18.156;2023-10-31T14:26:39;2.20;;;1.50;;
76552;SDS011;65395;53.168;18.156;2023-10-31T14:29:10;2.00;;;1.30;;
76552;SDS011;65395;53.168;18.156;2023-10-31T14:31:38;1.30;;;1.20;;
76552;SDS011;65395;53.168;18.156;2023-10-31T14:34:06;1.50;;;1.40;;
76552;SDS011;65395;53.168;18.156;2023-10-31T14:36:33;2.40;;;1.20;;
76552;SDS011;65395;53.168;18.156;2023-10-31T14:39:00;2.60;;;1.20;;